Time;durP1;ratioP1;P1;durP2;ratioP2;P2;SDS_P1;SDS_P2;PMS_P1;PMS_P2;Temp;Humidity;BMP_temperature;BMP_pressure;BME280_temperature;BME280_humidity;BME280_pressure;Samples;Min_cycle;Max_cycle;Signal;HPM_P1;HPM_P2
2023/11/17 00:01:17;;;;;;;40.33;29.08;;;7.80;98.60;;;;;;5022066;28;20110;-80
2023/11/17 00:03:43;;;;;;;44.60;29.92;;;7.80;98.60;;;;;;5021712;28;20024;-77
2023/11/17 00:06:08;;;;;;;42.22;31.05;;;7.80;98.70;;;;;;5017084;28;20037;-76
2023/11/17 00:08:34;;;;;;;40.47;29.27;;;7.80;98.70;;;;;;5024375;28;20043;-76
2023/11/17 00:11:00;;;;;;;43.63;32.15;;;7.80;98.70;;;;;;5024908;28;20564;-75
2023/11/17 00:13:26;;;;;;;41.78;29.88;;;7.80;98.70;;;;;;5023943;28;20065;-76
2023/11/17 00:15:52;;;;;;;37.75;27.92;;;7.80;98.70;;;;;;5022371;28;20034;-75
2023/11/17 00:18:20;;;;;;;40.28;30.38;;;7.90;98.70;;;;;;5023863;28;20049;-75
2023/11/17 00:20:46;;;;;;;45.45;32.08;;;7.90;98.70;;;;;;5022783;28;20033;-79
2023/11/17 00:23:13;;;;;;;36.33;26.77;;;7.90;98.70;;;;;;5023990;28;20149;-77
2023/11/17 00:25:39;;;;;;;41.22;30.23;;;7.90;98.70;;;;;;5020721;28;20647;-76
2023/11/17 00:28:05;;;;;;;40.97;29.75;;;8.00;98.70;;;;;;5023111;28;20167;-76
2023/11/17 00:30:31;;;;;;;37.92;28.02;;;8.00;98.80;;;;;;5020493;28;20113;-75
2023/11/17 00:32:56;;;;;;;40.28;29.70;;;8.00;98.70;;;;;;5022487;28;20572;-76
2023/11/17 00:35:22;;;;;;;42.55;30.00;;;8.00;98.80;;;;;;5023611;28;20030;-77
2023/11/17 00:37:48;;;;;;;42.15;29.50;;;8.10;98.80;;;;;;5026552;28;20080;-77
2023/11/17 00:40:14;;;;;;;38.97;28.90;;;8.10;98.80;;;;;;5026282;28;20387;-79
2023/11/17 00:42:39;;;;;;;37.53;29.17;;;8.10;98.80;;;;;;5021603;28;20692;-79
2023/11/17 00:45:07;;;;;;;36.72;28.35;;;8.10;98.80;;;;;;5026312;28;20165;-76
2023/11/17 00:47:33;;;;;;;38.75;29.83;;;8.10;98.70;;;;;;5024358;28;20372;-81
2023/11/17 00:49:59;;;;;;;35.75;27.15;;;8.10;98.70;;;;;;5025566;28;20102;-77
2023/11/17 00:52:25;;;;;;;39.05;27.08;;;8.10;98.80;;;;;;5023961;28;20049;-77
2023/11/17 00:54:53;;;;;;;36.58;26.58;;;8.10;98.70;;;;;;5025263;28;20041;-77
2023/11/17 00:57:19;;;;;;;34.30;26.33;;;8.10;98.70;;;;;;5022553;28;20099;-77
2023/11/17 00:59:45;;;;;;;35.20;26.67;;;8.10;98.70;;;;;;5023398;28;20065;-77
2023/11/17 01:02:11;;;;;;;34.20;25.52;;;8.10;98.80;;;;;;5028504;28;20053;-82
2023/11/17 01:04:37;;;;;;;32.38;23.75;;;8.10;98.80;;;;;;5045261;28;20022;-83
2023/11/17 01:07:02;;;;;;;34.22;25.70;;;8.10;98.80;;;;;;5045934;28;20041;-83
2023/11/17 01:09:28;;;;;;;31.95;24.27;;;8.10;98.80;;;;;;5038864;28;20103;-74
2023/11/17 01:11:54;;;;;;;30.02;24.42;;;8.10;98.80;;;;;;5024601;28;20037;-76
2023/11/17 01:14:20;;;;;;;32.63;24.20;;;8.20;98.90;;;;;;5029939;28;20022;-75
2023/11/17 01:16:47;;;;;;;30.33;23.85;;;8.20;98.90;;;;;;5029108;28;20390;-77
2023/11/17 01:19:13;;;;;;;32.35;23.80;;;8.20;98.90;;;;;;5026770;28;20033;-77
2023/11/17 01:21:39;;;;;;;32.92;25.20;;;8.20;98.90;;;;;;5026755;28;20053;-79
2023/11/17 01:24:05;;;;;;;30.95;24.15;;;8.20;98.90;;;;;;5020150;28;20080;-76
2023/11/17 01:26:31;;;;;;;31.25;23.60;;;8.30;99.00;;;;;;5025852;28;20049;-78
2023/11/17 01:28:57;;;;;;;29.23;23.73;;;8.30;99.00;;;;;;5024980;28;20128;-75
2023/11/17 01:31:22;;;;;;;33.17;24.35;;;8.30;99.00;;;;;;5024805;28;20144;-75
2023/11/17 01:33:49;;;;;;;34.92;25.50;;;8.30;99.00;;;;;;5026560;28;20451;-81
2023/11/17 01:36:18;;;;;;;31.50;24.40;;;8.30;99.00;;;;;;5026863;28;20021;-75
2023/11/17 01:38:44;;;;;;;34.05;25.92;;;8.30;99.00;;;;;;5022148;28;20041;-74
2023/11/17 01:41:10;;;;;;;36.38;26.80;;;8.30;99.10;;;;;;5024683;28;20045;-80
2023/11/17 01:43:36;;;;;;;39.15;27.35;;;8.30;99.10;;;;;;5023182;28;20139;-80
2023/11/17 01:46:02;;;;;;;36.88;26.27;;;8.30;99.20;;;;;;5023312;28;20034;-75
2023/11/17 01:48:28;;;;;;;37.33;25.90;;;8.40;99.20;;;;;;5016804;28;20044;-76
2023/11/17 01:50:55;;;;;;;39.42;26.20;;;8.40;99.20;;;;;;5024286;28;20037;-75
2023/11/17 01:53:21;;;;;;;37.03;26.70;;;8.40;99.20;;;;;;5021268;28;20682;-78
2023/11/17 01:55:47;;;;;;;36.00;26.65;;;8.40;99.10;;;;;;5019035;28;20029;-75
2023/11/17 01:58:14;;;;;;;39.60;27.73;;;8.40;99.20;;;;;;5018901;28;20114;-74
2023/11/17 02:00:40;;;;;;;39.30;26.10;;;8.40;99.20;;;;;;5024994;28;20032;-79
2023/11/17 02:03:07;;;;;;;39.08;25.73;;;8.40;99.10;;;;;;5020696;28;20537;-77
2023/11/17 02:05:33;;;;;;;32.83;24.30;;;8.40;99.20;;;;;;5021211;28;20029;-75
2023/11/17 02:08:04;;;;;;;36.20;25.23;;;8.40;99.10;;;;;;5024743;28;20491;-80
2023/11/17 02:10:39;;;;;;;34.42;24.92;;;8.40;99.10;;;;;;5023220;28;20615;-75
2023/11/17 02:13:33;;;;;;;35.65;24.35;;;8.40;99.10;;;;;;5024519;28;20045;-75
2023/11/17 02:16:02;;;;;;;40.88;26.55;;;8.40;99.10;;;;;;5023501;28;20384;-74
2023/11/17 02:18:30;;;;;;;37.35;24.92;;;8.40;99.10;;;;;;5022649;28;20433;-75
2023/11/17 02:20:58;;;;;;;38.08;25.40;;;8.40;99.10;;;;;;5025707;28;20044;-75
2023/11/17 02:23:26;;;;;;;40.63;25.80;;;8.40;99.10;;;;;;5023718;28;20046;-76
2023/11/17 02:26:31;;;;;;;41.65;26.20;;;8.40;99.10;;;;;;5024144;28;20033;-78
2023/11/17 02:29:10;;;;;;;42.83;27.27;;;8.40;99.20;;;;;;5003569;28;20057;-74
2023/11/17 02:31:39;;;;;;;40.50;25.20;;;8.40;99.20;;;;;;5021984;28;20049;-75
2023/11/17 02:34:08;;;;;;;43.88;26.55;;;8.40;99.10;;;;;;5026057;28;20132;-77
2023/11/17 02:36:35;;;;;;;35.03;23.90;;;8.40;99.10;;;;;;5020163;28;20060;-75
2023/11/17 02:39:15;;;;;;;38.95;25.52;;;8.50;99.20;;;;;;5025156;28;20031;-78
2023/11/17 02:41:56;;;;;;;38.05;25.17;;;8.50;99.10;;;;;;5021294;28;20029;-80
2023/11/17 02:44:23;;;;;;;39.28;24.67;;;8.40;99.10;;;;;;5019571;28;20018;-76
2023/11/17 02:46:58;;;;;;;39.75;24.38;;;8.50;99.10;;;;;;5020640;28;20055;-76
2023/11/17 02:49:29;;;;;;;32.03;20.15;;;8.50;99.10;;;;;;5023600;28;20470;-75
2023/11/17 02:51:55;;;;;;;33.95;20.83;;;8.40;99.00;;;;;;5023097;28;20045;-78
2023/11/17 02:54:27;;;;;;;29.63;19.17;;;8.40;99.00;;;;;;5021621;28;20497;-75
2023/11/17 02:56:54;;;;;;;28.27;16.65;;;8.40;99.00;;;;;;5021980;28;20033;-80
2023/11/17 02:59:22;;;;;;;22.42;15.82;;;8.50;98.90;;;;;;5023023;28;20021;-75
2023/11/17 03:01:50;;;;;;;23.23;15.35;;;8.40;98.80;;;;;;5020941;28;20168;-77
2023/11/17 03:04:16;;;;;;;21.20;13.48;;;8.40;98.80;;;;;;5024804;28;20017;-80
2023/11/17 03:06:49;;;;;;;19.05;12.43;;;8.40;98.80;;;;;;5022240;28;20043;-79
2023/11/17 03:09:22;;;;;;;17.75;13.77;;;8.40;98.80;;;;;;5019700;28;20033;-75
2023/11/17 03:11:52;;;;;;;18.15;13.73;;;8.30;98.70;;;;;;5023026;28;20107;-77
2023/11/17 03:14:19;;;;;;;19.70;15.02;;;8.30;98.80;;;;;;5024532;28;20079;-78
2023/11/17 03:16:49;;;;;;;19.17;15.07;;;8.30;98.70;;;;;;5020329;28;20132;-75
2023/11/17 03:19:15;;;;;;;21.73;16.70;;;8.20;98.60;;;;;;5026130;28;20634;-74
2023/11/17 03:21:41;;;;;;;20.27;15.70;;;8.20;98.60;;;;;;5020654;28;20110;-75
2023/11/17 03:24:17;;;;;;;21.13;16.52;;;8.20;98.60;;;;;;5021621;28;20030;-74
2023/11/17 03:26:46;;;;;;;21.02;16.48;;;8.10;98.60;;;;;;5023641;28;20029;-74
2023/11/17 03:29:14;;;;;;;22.98;17.90;;;8.10;98.60;;;;;;5022671;28;20886;-75
2023/11/17 03:31:52;;;;;;;21.52;16.50;;;8.10;98.50;;;;;;5022426;28;20501;-76
2023/11/17 03:34:23;;;;;;;22.77;17.65;;;8.10;98.50;;;;;;5024135;28;20025;-75
2023/11/17 03:37:02;;;;;;;22.15;17.17;;;8.00;98.50;;;;;;5023052;28;20113;-80
2023/11/17 03:39:41;;;;;;;23.20;17.15;;;8.00;98.50;;;;;;5022755;28;20102;-83
2023/11/17 03:42:11;;;;;;;21.83;16.85;;;8.00;98.50;;;;;;5022899;28;20038;-77
2023/11/17 03:44:37;;;;;;;20.65;16.60;;;7.90;98.60;;;;;;5025346;28;20386;-82
2023/11/17 03:47:09;;;;;;;23.75;17.48;;;8.00;98.50;;;;;;5023780;28;20036;-75
2023/11/17 03:49:35;;;;;;;23.17;17.45;;;7.90;98.50;;;;;;5023264;28;20029;-77
2023/11/17 03:52:05;;;;;;;22.17;16.85;;;7.90;98.40;;;;;;5021714;28;20046;-78
2023/11/17 03:54:32;;;;;;;22.73;17.08;;;7.80;98.40;;;;;;5020161;28;20018;-75
2023/11/17 03:57:01;;;;;;;22.75;16.70;;;7.80;98.40;;;;;;5017785;28;20139;-76
2023/11/17 03:59:28;;;;;;;22.70;17.23;;;7.70;98.40;;;;;;5022252;28;20029;-81
2023/11/17 04:01:54;;;;;;;23.40;18.42;;;7.60;98.40;;;;;;5020247;28;20044;-74
2023/11/17 04:04:20;;;;;;;25.02;18.13;;;7.60;98.40;;;;;;5022637;28;20083;-75
2023/11/17 04:06:49;;;;;;;23.52;17.70;;;7.60;98.40;;;;;;5018248;28;20648;-79
2023/11/17 04:09:20;;;;;;;23.83;17.25;;;7.60;98.40;;;;;;5022218;28;20121;-75
2023/11/17 04:11:47;;;;;;;23.60;17.52;;;7.60;98.30;;;;;;5022186;28;20037;-75
2023/11/17 04:14:13;;;;;;;24.02;17.98;;;7.50;98.30;;;;;;5024979;28;20559;-78
2023/11/17 04:16:39;;;;;;;23.48;17.77;;;7.50;98.30;;;;;;5025835;28;20037;-77
2023/11/17 04:19:05;;;;;;;23.58;18.52;;;7.40;98.30;;;;;;5025500;28;20033;-75
2023/11/17 04:21:33;;;;;;;24.92;18.52;;;7.40;98.30;;;;;;5025912;28;20124;-82
2023/11/17 04:23:58;;;;;;;25.23;18.38;;;7.40;98.30;;;;;;5027076;28;20033;-76
2023/11/17 04:26:24;;;;;;;24.25;17.73;;;7.30;98.40;;;;;;5025254;28;20390;-76
2023/11/17 04:28:49;;;;;;;23.27;17.55;;;7.40;98.50;;;;;;5024216;28;20077;-78
2023/11/17 04:31:15;;;;;;;23.38;17.10;;;7.40;98.50;;;;;;5023856;28;20581;-77
2023/11/17 04:33:41;;;;;;;22.23;17.15;;;7.40;98.50;;;;;;5024330;28;20026;-75
2023/11/17 04:36:10;;;;;;;24.60;17.67;;;7.40;98.60;;;;;;5027230;28;20049;-77
2023/11/17 04:38:39;;;;;;;24.90;18.08;;;7.30;98.50;;;;;;5021000;28;20050;-75
2023/11/17 04:41:05;;;;;;;24.15;17.17;;;7.30;98.50;;;;;;5025988;28;20527;-75
2023/11/17 04:43:31;;;;;;;24.25;18.00;;;7.30;98.40;;;;;;5024396;28;20026;-78
2023/11/17 04:45:57;;;;;;;25.10;18.58;;;7.20;98.40;;;;;;5025505;28;20044;-75
2023/11/17 04:48:23;;;;;;;24.40;17.45;;;7.20;98.50;;;;;;5022658;28;20786;-80
2023/11/17 04:50:48;;;;;;;22.13;16.33;;;7.10;98.50;;;;;;5026235;28;20064;-81
2023/11/17 04:53:14;;;;;;;26.98;18.27;;;7.10;98.50;;;;;;5020459;28;20041;-75
2023/11/17 04:55:44;;;;;;;24.02;18.30;;;7.10;98.60;;;;;;5031892;28;20486;-79
2023/11/17 04:58:11;;;;;;;25.85;16.80;;;7.00;98.60;;;;;;5024818;28;20060;-79
2023/11/17 05:00:38;;;;;;;25.20;17.30;;;6.90;98.60;;;;;;5024566;28;20036;-83
2023/11/17 05:03:04;;;;;;;24.95;17.17;;;6.90;98.60;;;;;;5025687;28;20077;-80
2023/11/17 05:05:31;;;;;;;21.95;15.93;;;6.80;98.70;;;;;;5026974;28;20053;-75
2023/11/17 05:07:59;;;;;;;23.75;16.67;;;6.80;98.70;;;;;;5022866;28;20037;-75
2023/11/17 05:10:26;;;;;;;23.85;17.00;;;6.80;98.80;;;;;;5028654;28;20046;-80
2023/11/17 05:12:52;;;;;;;25.42;17.80;;;6.90;99.00;;;;;;5025716;28;20041;-75
2023/11/17 05:15:20;;;;;;;23.95;16.65;;;6.90;99.00;;;;;;5025092;28;20030;-74
2023/11/17 05:17:49;;;;;;;22.48;16.23;;;7.00;99.10;;;;;;5022867;28;20128;-78
2023/11/17 05:20:20;;;;;;;23.40;17.13;;;7.00;99.20;;;;;;5016738;28;20062;-76
2023/11/17 05:22:47;;;;;;;24.23;17.77;;;7.10;99.20;;;;;;5023688;28;20037;-76
2023/11/17 05:25:14;;;;;;;22.90;16.73;;;7.10;99.20;;;;;;5018564;28;20025;-75
2023/11/17 05:27:41;;;;;;;23.63;16.90;;;7.20;99.20;;;;;;5017470;28;20057;-75
2023/11/17 05:30:07;;;;;;;20.75;15.73;;;7.20;99.10;;;;;;5014285;28;20061;-75
2023/11/17 05:32:34;;;;;;;23.73;17.10;;;7.10;99.00;;;;;;5016757;28;20536;-76
2023/11/17 05:35:00;;;;;;;23.67;17.17;;;7.20;99.00;;;;;;5020873;28;20426;-78
2023/11/17 05:37:26;;;;;;;23.38;16.88;;;7.20;99.10;;;;;;5021180;28;20095;-81
2023/11/17 05:39:58;;;;;;;22.63;16.45;;;7.30;99.10;;;;;;5017521;28;20037;-80
2023/11/17 05:42:24;;;;;;;23.58;15.80;;;7.30;99.10;;;;;;5011485;28;20064;-78
2023/11/17 05:44:50;;;;;;;23.25;17.27;;;7.30;99.00;;;;;;5022539;28;20111;-75
2023/11/17 05:47:16;;;;;;;27.63;18.35;;;7.40;99.00;;;;;;5018275;28;20509;-78
2023/11/17 05:49:44;;;;;;;24.70;17.10;;;7.40;99.00;;;;;;5025255;28;20018;-77
2023/11/17 05:52:11;;;;;;;27.35;17.75;;;7.40;99.00;;;;;;5029733;28;20414;-77
2023/11/17 05:54:44;;;;;;;30.38;19.30;;;7.40;99.00;;;;;;5021214;28;21642;-80
2023/11/17 05:57:14;;;;;;;36.78;20.77;;;7.50;99.00;;;;;;5019619;28;20161;-81
2023/11/17 05:59:42;;;;;;;35.15;21.02;;;7.50;98.90;;;;;;5020476;28;20164;-78
2023/11/17 06:02:08;;;;;;;37.80;21.85;;;7.40;98.90;;;;;;5026159;28;20585;-78
2023/11/17 06:04:34;;;;;;;33.28;21.75;;;7.40;98.90;;;;;;5044406;28;20028;-86
2023/11/17 06:07:01;;;;;;;35.08;21.50;;;7.40;98.80;;;;;;5042969;28;20033;-83
2023/11/17 06:09:27;;;;;;;40.40;25.02;;;7.40;98.80;;;;;;5042214;28;20052;-78
2023/11/17 06:11:55;;;;;;;36.30;22.30;;;7.40;98.80;;;;;;5028833;28;20041;-80
2023/11/17 06:14:24;;;;;;;38.38;23.35;;;7.30;98.80;;;;;;5028800;28;20033;-75
2023/11/17 06:16:55;;;;;;;41.05;24.00;;;7.30;98.80;;;;;;5026617;28;20033;-79
2023/11/17 06:19:22;;;;;;;39.75;24.15;;;7.20;98.80;;;;;;5024402;28;20446;-77
2023/11/17 06:21:48;;;;;;;42.83;23.48;;;7.20;98.80;;;;;;5021617;28;20460;-77
2023/11/17 06:24:18;;;;;;;37.63;24.10;;;7.20;98.90;;;;;;5024060;28;20096;-77
2023/11/17 06:26:45;;;;;;;40.90;23.73;;;7.20;98.90;;;;;;5021513;28;20195;-79
2023/11/17 06:29:12;;;;;;;36.55;21.85;;;7.20;98.90;;;;;;5019493;28;20100;-77
2023/11/17 06:31:38;;;;;;;41.78;24.92;;;7.10;98.90;;;;;;5021875;28;20041;-76
2023/11/17 06:34:04;;;;;;;40.92;25.08;;;7.10;98.90;;;;;;5016762;28;20570;-79
2023/11/17 06:36:30;;;;;;;41.42;24.50;;;7.10;99.00;;;;;;5017418;28;20056;-76
2023/11/17 06:38:56;;;;;;;43.95;25.05;;;7.20;99.00;;;;;;5022310;28;20025;-76
2023/11/17 06:41:23;;;;;;;43.83;26.48;;;7.20;99.00;;;;;;5022113;28;20622;-79
2023/11/17 06:43:51;;;;;;;39.75;25.15;;;7.20;99.00;;;;;;5026778;28;20048;-77
2023/11/17 06:46:17;;;;;;;46.25;26.15;;;7.20;99.10;;;;;;5019685;28;20081;-78
2023/11/17 06:48:42;;;;;;;47.83;27.65;;;7.20;99.10;;;;;;5020071;28;20022;-81
2023/11/17 06:51:08;;;;;;;45.92;27.80;;;7.30;99.10;;;;;;5021952;28;20079;-81
2023/11/17 06:53:34;;;;;;;42.67;25.98;;;7.30;99.10;;;;;;5008688;28;20042;-76
2023/11/17 06:56:00;;;;;;;45.65;27.75;;;7.30;99.10;;;;;;5020401;28;20067;-77
2023/11/17 06:58:26;;;;;;;45.90;28.77;;;7.40;99.10;;;;;;5017588;28;20040;-76
2023/11/17 07:00:52;;;;;;;43.75;27.38;;;7.30;99.00;;;;;;5021269;28;20041;-77
2023/11/17 07:03:21;;;;;;;46.75;28.48;;;7.40;99.00;;;;;;5024432;28;20667;-77
2023/11/17 07:05:51;;;;;;;45.45;28.13;;;7.40;99.00;;;;;;5021863;28;20403;-77
2023/11/17 07:08:18;;;;;;;46.25;28.55;;;7.40;99.00;;;;;;5024721;28;20046;-77
2023/11/17 07:10:44;;;;;;;50.95;30.27;;;7.50;99.00;;;;;;5024299;28;20037;-77
2023/11/17 07:13:10;;;;;;;47.63;29.77;;;7.50;99.00;;;;;;5024058;28;20557;-75
2023/11/17 07:15:36;;;;;;;46.75;29.92;;;7.50;98.90;;;;;;5025722;28;20124;-76
2023/11/17 07:18:03;;;;;;;41.92;28.98;;;7.50;98.90;;;;;;5021157;28;20065;-80
2023/11/17 07:20:29;;;;;;;48.22;29.88;;;7.50;98.90;;;;;;5020126;28;20044;-79
2023/11/17 07:22:55;;;;;;;51.42;31.45;;;7.50;98.90;;;;;;5022700;28;20037;-77
2023/11/17 07:25:22;;;;;;;48.65;30.50;;;7.50;98.90;;;;;;5027564;28;20071;-75
2023/11/17 07:27:48;;;;;;;55.63;32.10;;;7.50;98.90;;;;;;5023446;28;20493;-77
2023/11/17 07:30:14;;;;;;;52.72;32.75;;;7.50;98.90;;;;;;5023423;28;20046;-79
2023/11/17 07:32:40;;;;;;;52.33;30.00;;;7.50;98.90;;;;;;5025617;28;20551;-75
2023/11/17 07:35:07;;;;;;;47.53;30.85;;;7.50;98.90;;;;;;5023747;28;20038;-76
2023/11/17 07:37:34;;;;;;;50.75;30.95;;;7.60;98.90;;;;;;5021629;28;20089;-76
2023/11/17 07:40:00;;;;;;;48.53;31.65;;;7.60;98.90;;;;;;5022217;28;20417;-77
2023/11/17 07:42:26;;;;;;;56.42;33.05;;;7.60;98.80;;;;;;5021854;28;20033;-77
2023/11/17 07:44:52;;;;;;;48.20;31.90;;;7.60;98.90;;;;;;5022067;28;20098;-76
2023/11/17 07:47:18;;;;;;;54.72;30.38;;;7.50;98.90;;;;;;5022336;28;20045;-77
2023/11/17 07:49:43;;;;;;;48.38;30.52;;;7.60;98.90;;;;;;5025013;28;20033;-81
2023/11/17 07:52:10;;;;;;;50.67;29.38;;;7.60;98.80;;;;;;5019901;28;20057;-80
2023/11/17 07:54:35;;;;;;;45.63;28.63;;;7.60;98.80;;;;;;5020766;28;20028;-76
2023/11/17 07:57:02;;;;;;;49.80;30.20;;;7.60;98.90;;;;;;5017982;28;20041;-79
2023/11/17 07:59:28;;;;;;;46.53;29.45;;;7.60;98.90;;;;;;5034688;28;20374;-76
2023/11/17 08:01:55;;;;;;;51.20;29.80;;;7.60;98.90;;;;;;5024661;28;20052;-75
2023/11/17 08:04:22;;;;;;;50.60;27.80;;;7.70;98.90;;;;;;5023235;28;20505;-77
2023/11/17 08:06:48;;;;;;;49.42;28.55;;;7.70;98.90;;;;;;5019700;28;20033;-76
2023/11/17 08:09:16;;;;;;;52.55;29.63;;;7.70;98.90;;;;;;5036305;28;20021;-78
2023/11/17 08:11:42;;;;;;;51.35;28.95;;;7.70;98.90;;;;;;5022684;28;20045;-76
2023/11/17 08:14:08;;;;;;;47.05;28.15;;;7.80;98.80;;;;;;5026014;28;20029;-77
2023/11/17 08:16:35;;;;;;;46.60;28.17;;;7.90;98.80;;;;;;5019384;28;20121;-76
2023/11/17 08:19:01;;;;;;;47.22;28.10;;;7.90;98.80;;;;;;5023971;28;20033;-77
2023/11/17 08:21:27;;;;;;;45.30;26.95;;;8.00;98.80;;;;;;5023331;28;20030;-76
2023/11/17 08:23:53;;;;;;;40.40;25.70;;;8.00;98.70;;;;;;5025006;28;20022;-76
2023/11/17 08:26:19;;;;;;;42.63;25.00;;;8.00;98.70;;;;;;5023686;28;20146;-77
2023/11/17 08:28:45;;;;;;;36.55;23.33;;;8.10;98.60;;;;;;5020517;28;20128;-77
2023/11/17 08:31:14;;;;;;;39.15;23.33;;;8.10;98.60;;;;;;5019632;28;20148;-78
2023/11/17 08:33:42;;;;;;;39.78;22.40;;;8.10;98.60;;;;;;5022083;28;20494;-76
2023/11/17 08:36:09;;;;;;;35.75;22.40;;;8.20;98.60;;;;;;5024512;28;20046;-76
2023/11/17 08:38:41;;;;;;;36.92;21.98;;;8.30;98.50;;;;;;5021304;28;20026;-76
2023/11/17 08:41:08;;;;;;;34.05;21.40;;;8.30;98.30;;;;;;5020112;28;20044;-75
2023/11/17 08:43:33;;;;;;;36.10;22.77;;;8.30;98.20;;;;;;5027407;28;21453;-75
2023/11/17 08:46:00;;;;;;;32.85;20.67;;;8.50;98.20;;;;;;5024133;28;20037;-73
2023/11/17 08:48:25;;;;;;;35.05;20.20;;;8.50;98.10;;;;;;5017209;28;21393;-76
2023/11/17 08:50:51;;;;;;;32.67;19.05;;;8.60;98.00;;;;;;5021374;28;20065;-75
2023/11/17 08:53:17;;;;;;;30.85;18.20;;;8.80;97.90;;;;;;5021561;28;20084;-75
2023/11/17 08:55:43;;;;;;;26.48;17.38;;;8.90;97.90;;;;;;5018245;28;20079;-76
2023/11/17 08:58:10;;;;;;;28.92;18.23;;;9.10;97.60;;;;;;5023855;28;20120;-76
2023/11/17 09:00:36;;;;;;;28.58;17.15;;;9.20;97.50;;;;;;5029354;28;20068;-76
2023/11/17 09:03:04;;;;;;;28.40;16.55;;;9.30;97.10;;;;;;5023571;28;20045;-77
2023/11/17 09:05:30;;;;;;;22.95;15.93;;;9.40;96.80;;;;;;5025972;28;20048;-78
2023/11/17 09:07:56;;;;;;;25.83;16.15;;;9.40;96.60;;;;;;5024872;28;20033;-76
2023/11/17 09:10:26;;;;;;;21.45;15.35;;;9.50;96.30;;;;;;5025426;28;20044;-76
2023/11/17 09:12:53;;;;;;;20.75;13.63;;;9.50;96.10;;;;;;5026140;28;20053;-77
2023/11/17 09:15:27;;;;;;;23.10;14.77;;;9.50;96.10;;;;;;5023303;28;20041;-75
2023/11/17 09:17:53;;;;;;;22.50;13.80;;;9.50;95.80;;;;;;5025906;28;20041;-75
2023/11/17 09:20:23;;;;;;;22.92;12.88;;;9.40;95.60;;;;;;5025826;28;20056;-76
2023/11/17 09:22:50;;;;;;;19.88;12.75;;;9.30;95.60;;;;;;5027858;28;20076;-76
2023/11/17 09:25:17;;;;;;;21.30;11.85;;;9.30;95.40;;;;;;5021403;28;20049;-76
2023/11/17 09:27:50;;;;;;;22.10;12.52;;;9.30;95.60;;;;;;5023510;28;20061;-78
2023/11/17 09:30:17;;;;;;;20.42;12.80;;;9.20;95.40;;;;;;5025902;28;20041;-75
2023/11/17 09:32:44;;;;;;;16.80;11.27;;;9.10;95.30;;;;;;5022047;28;20116;-75
2023/11/17 09:35:15;;;;;;;19.00;10.50;;;9.10;95.50;;;;;;5020059;28;20038;-75
2023/11/17 09:37:50;;;;;;;16.23;10.30;;;9.10;95.50;;;;;;5025064;28;20390;-81
2023/11/17 09:40:28;;;;;;;17.90;10.05;;;9.10;95.50;;;;;;5027013;28;20045;-77
2023/11/17 09:42:58;;;;;;;15.35;9.02;;;9.10;95.50;;;;;;5021962;28;20063;-73
2023/11/17 09:45:30;;;;;;;15.95;9.70;;;9.20;95.40;;;;;;5024225;28;21623;-73
2023/11/17 09:48:02;;;;;;;15.70;8.65;;;9.30;95.50;;;;;;5024401;28;20532;-74
2023/11/17 09:50:29;;;;;;;16.45;9.10;;;9.40;95.40;;;;;;5025987;28;20547;-74
2023/11/17 09:52:57;;;;;;;13.88;9.25;;;9.40;95.50;;;;;;5024557;28;20676;-75
2023/11/17 09:55:27;;;;;;;13.45;8.98;;;9.50;95.40;;;;;;5025202;28;20065;-75
2023/11/17 09:57:55;;;;;;;16.05;8.57;;;9.60;95.40;;;;;;5022219;28;20475;-75
2023/11/17 10:00:25;;;;;;;16.55;9.02;;;9.70;95.20;;;;;;5020963;28;20034;-79
2023/11/17 10:03:00;;;;;;;16.75;9.05;;;9.70;94.90;;;;;;5023318;28;20039;-74
2023/11/17 10:05:29;;;;;;;13.55;9.00;;;9.80;94.60;;;;;;5027404;28;20474;-76
2023/11/17 10:08:17;;;;;;;13.50;9.30;;;9.90;94.40;;;;;;5024059;28;20125;-77
2023/11/17 10:10:47;;;;;;;14.30;8.73;;;10.00;94.50;;;;;;5021298;28;20374;-75
2023/11/17 10:13:18;;;;;;;15.55;8.43;;;10.10;93.80;;;;;;5025082;28;20167;-74
2023/11/17 10:15:45;;;;;;;13.65;8.25;;;10.10;93.40;;;;;;5021655;28;20033;-77
2023/11/17 10:18:25;;;;;;;15.32;8.75;;;10.20;93.30;;;;;;5024703;28;20033;-77
2023/11/17 10:20:53;;;;;;;14.43;8.45;;;10.20;92.90;;;;;;5024040;28;20040;-75
2023/11/17 10:23:20;;;;;;;12.77;6.95;;;10.20;92.90;;;;;;5018441;28;20036;-76
2023/11/17 10:25:54;;;;;;;12.63;8.23;;;10.30;93.20;;;;;;5022018;28;20029;-75
2023/11/17 10:28:27;;;;;;;12.00;7.47;;;10.40;93.30;;;;;;5024590;28;20488;-80
2023/11/17 10:30:57;;;;;;;11.18;6.72;;;10.50;92.90;;;;;;5024380;28;20132;-76
2023/11/17 10:33:26;;;;;;;10.70;5.95;;;10.50;92.80;;;;;;5022150;28;20489;-74
2023/11/17 10:36:01;;;;;;;10.52;5.53;;;10.60;92.70;;;;;;5024153;28;20540;-76
2023/11/17 10:38:27;;;;;;;10.32;5.80;;;10.60;92.10;;;;;;5025328;28;20037;-77
2023/11/17 10:40:53;;;;;;;9.52;5.38;;;10.70;92.30;;;;;;5025134;28;20034;-73
2023/11/17 10:43:19;;;;;;;10.40;5.38;;;10.70;92.10;;;;;;5024940;28;20041;-75
2023/11/17 10:45:45;;;;;;;9.73;5.22;;;10.80;91.80;;;;;;5020047;28;20048;-75
2023/11/17 10:48:16;;;;;;;11.27;6.60;;;10.90;91.60;;;;;;5022266;28;20483;-76
2023/11/17 10:50:45;;;;;;;30.58;21.58;;;10.90;91.10;;;;;;5026050;28;20037;-74
2023/11/17 10:53:24;;;;;;;30.00;21.05;;;10.90;91.20;;;;;;5022324;28;20107;-78
2023/11/17 10:55:56;;;;;;;18.98;10.40;;;10.90;91.40;;;;;;5019194;28;20045;-74
2023/11/17 10:58:22;;;;;;;8.93;4.95;;;11.00;91.10;;;;;;5024145;28;20113;-74
2023/11/17 11:00:49;;;;;;;7.60;5.00;;;10.90;90.80;;;;;;5026704;28;20113;-74
2023/11/17 11:03:16;;;;;;;9.15;4.50;;;11.00;90.90;;;;;;5024241;28;20470;-74
2023/11/17 11:05:44;;;;;;;7.60;4.18;;;11.10;90.80;;;;;;5022352;28;20041;-75
2023/11/17 11:08:18;;;;;;;7.45;4.75;;;11.30;90.70;;;;;;5043941;28;20033;-75
2023/11/17 11:10:57;;;;;;;7.13;4.22;;;11.20;89.80;;;;;;5028182;28;20430;-74
2023/11/17 11:13:28;;;;;;;9.00;4.38;;;11.20;89.80;;;;;;5025174;28;20662;-74
2023/11/17 11:16:10;;;;;;;8.27;4.95;;;11.20;89.90;;;;;;5024030;28;20045;-75
2023/11/17 11:18:47;;;;;;;8.88;4.53;;;11.10;89.90;;;;;;5021051;28;20041;-74
2023/11/17 11:21:17;;;;;;;7.78;4.60;;;11.10;90.40;;;;;;5021030;28;20030;-72
2023/11/17 11:23:47;;;;;;;7.07;4.60;;;11.00;90.30;;;;;;5019105;28;20102;-75
2023/11/17 11:26:14;;;;;;;8.80;4.65;;;11.00;90.80;;;;;;5025473;28;20478;-75
2023/11/17 11:28:41;;;;;;;9.23;5.63;;;10.90;90.40;;;;;;5023072;28;20087;-75
2023/11/17 11:31:11;;;;;;;8.88;5.22;;;10.80;90.30;;;;;;5021788;28;20534;-75
2023/11/17 11:33:37;;;;;;;8.75;5.60;;;10.90;90.50;;;;;;5016547;28;20076;-75
2023/11/17 11:36:05;;;;;;;8.52;5.68;;;10.90;89.90;;;;;;5017611;28;20053;-75
2023/11/17 11:38:32;;;;;;;7.95;5.45;;;11.00;89.80;;;;;;5014296;28;20034;-75
2023/11/17 11:40:58;;;;;;;9.88;5.55;;;11.10;89.70;;;;;;5018111;28;20132;-78
2023/11/17 11:43:30;;;;;;;8.27;5.40;;;11.30;89.70;;;;;;5017729;28;20038;-78
2023/11/17 11:45:57;;;;;;;9.35;5.40;;;11.40;88.70;;;;;;5014893;28;20044;-77
2023/11/17 11:48:25;;;;;;;9.55;5.63;;;11.50;88.80;;;;;;5014954;28;20029;-74
2023/11/17 11:50:54;;;;;;;9.40;5.22;;;11.50;88.70;;;;;;5018022;28;20046;-77
2023/11/17 11:53:24;;;;;;;11.45;6.40;;;11.50;88.70;;;;;;5011342;28;20394;-75
2023/11/17 11:55:52;;;;;;;10.07;5.85;;;11.50;88.40;;;;;;5014735;28;20120;-79
2023/11/17 11:58:19;;;;;;;10.55;6.30;;;11.50;88.60;;;;;;5015474;28;20115;-75
2023/11/17 12:00:52;;;;;;;8.38;6.47;;;11.60;89.00;;;;;;5015706;28;20052;-77
2023/11/17 12:03:18;;;;;;;12.13;7.28;;;11.60;88.80;;;;;;5015611;28;20044;-74
2023/11/17 12:05:44;;;;;;;12.15;7.07;;;11.60;88.10;;;;;;5013571;28;20038;-74
2023/11/17 12:08:31;;;;;;;8.48;7.00;;;11.50;88.80;;;;;;5011650;28;20165;-77
2023/11/17 12:11:06;;;;;;;10.73;8.50;;;11.50;88.90;;;;;;5015010;28;20516;-79
2023/11/17 12:13:39;;;;;;;13.70;8.82;;;11.40;89.10;;;;;;5015939;28;20106;-75
2023/11/17 12:16:10;;;;;;;13.43;9.20;;;11.20;89.40;;;;;;5015893;28;20072;-76
2023/11/17 12:18:36;;;;;;;11.65;8.55;;;11.10;89.20;;;;;;5014897;28;20037;-77
2023/11/17 12:21:17;;;;;;;12.57;9.10;;;11.00;89.40;;;;;;5014752;28;20052;-78
2023/11/17 12:23:49;;;;;;;11.35;9.00;;;11.10;89.60;;;;;;5014436;28;20405;-78
2023/11/17 12:26:19;;;;;;;12.18;9.73;;;11.20;89.80;;;;;;5015458;28;20065;-76
2023/11/17 12:28:46;;;;;;;11.60;8.52;;;11.40;89.70;;;;;;5012737;28;20053;-77
2023/11/17 12:31:14;;;;;;;12.30;8.88;;;11.60;89.10;;;;;;5014941;28;20112;-75
2023/11/17 12:33:43;;;;;;;10.85;8.27;;;11.60;87.80;;;;;;5017590;28;20584;-78
2023/11/17 12:36:13;;;;;;;13.55;9.02;;;11.60;87.80;;;;;;5022876;28;20075;-75
2023/11/17 12:38:41;;;;;;;13.15;9.60;;;11.60;87.80;;;;;;5017671;28;20037;-74
2023/11/17 12:41:10;;;;;;;18.05;10.43;;;11.40;87.90;;;;;;5020637;28;20045;-75
2023/11/17 12:43:37;;;;;;;15.57;12.50;;;11.40;88.60;;;;;;5024736;28;20040;-79